createdAt,value
2018-09-21T06:53:28.976Z,4.90
2018-09-21T06:55:58.063Z,5.20
2018-09-21T06:58:26.556Z,5.90
2018-09-21T07:00:55.444Z,5.47
2018-09-21T07:03:23.858Z,5.80
2018-09-21T07:05:52.382Z,5.20
2018-09-21T07:08:20.815Z,5.70
2018-09-21T07:10:49.533Z,4.85
2018-09-21T07:13:18.060Z,4.90
2018-09-21T07:15:46.545Z,4.00
2018-09-21T07:18:14.982Z,4.37
2018-09-21T07:20:43.411Z,3.60
2018-09-21T07:23:11.826Z,4.90
2018-09-21T07:25:40.248Z,4.77
2018-09-21T07:28:08.659Z,3.50
2018-09-21T07:30:37.040Z,3.57
2018-09-21T07:33:05.489Z,4.07
2018-09-21T07:35:34.219Z,3.90
2018-09-21T07:38:02.759Z,4.47
2018-09-21T07:40:31.375Z,3.73
2018-09-21T07:42:59.875Z,3.77
2018-09-21T07:45:28.448Z,3.57
2018-09-21T07:47:57.210Z,4.00
2018-09-21T07:50:25.768Z,3.77
2018-09-21T07:52:54.707Z,3.83
2018-09-21T07:55:23.176Z,3.93
2018-09-21T07:57:51.857Z,3.90
2018-09-21T08:00:20.325Z,3.17
2018-09-21T08:02:49.149Z,4.17
2018-09-21T08:05:21.789Z,4.03
2018-09-21T08:07:50.362Z,3.47
2018-09-21T08:10:18.916Z,3.60
2018-09-21T08:12:47.428Z,3.80
2018-09-21T08:15:16.016Z,3.30
2018-09-21T08:17:44.875Z,3.70
2018-09-21T08:20:13.460Z,3.50
2018-09-21T08:22:42.268Z,3.55
2018-09-21T08:25:10.963Z,3.85
2018-09-21T08:27:39.555Z,3.23
2018-09-21T08:30:08.064Z,3.67
2018-09-21T08:32:36.816Z,3.00
2018-09-21T08:35:05.685Z,3.83
2018-09-21T08:37:34.204Z,3.53
2018-09-21T08:40:02.721Z,3.12
2018-09-21T08:42:31.713Z,3.07
2018-09-21T08:45:00.100Z,3.33
2018-09-21T08:47:28.560Z,3.83
2018-09-21T08:49:57.828Z,2.80
2018-09-21T08:52:26.325Z,3.43
2018-09-21T08:54:54.841Z,4.40
2018-09-21T08:57:23.724Z,2.73
2018-09-21T08:59:52.143Z,3.00
2018-09-21T09:02:20.610Z,3.52
2018-09-21T09:04:49.124Z,3.33
2018-09-21T09:07:17.739Z,3.53
2018-09-21T09:09:46.350Z,3.47
2018-09-21T09:12:14.806Z,3.40
2018-09-21T09:14:43.275Z,3.35
2018-09-21T09:17:11.807Z,3.53
2018-09-21T09:19:40.244Z,3.30
2018-09-21T09:22:08.723Z,3.75
2018-09-21T09:24:37.263Z,3.30
2018-09-21T09:27:05.678Z,3.42
2018-09-21T09:29:34.261Z,3.43
2018-09-21T09:32:02.884Z,3.23
2018-09-21T09:34:31.431Z,3.77
2018-09-21T09:37:00.452Z,3.37
2018-09-21T09:39:28.916Z,3.77
2018-09-21T09:41:57.707Z,3.73
2018-09-21T09:44:26.952Z,2.75
2018-09-21T09:46:55.441Z,3.80
2018-09-21T09:49:24.003Z,3.53
2018-09-21T09:51:52.565Z,2.83
2018-09-21T09:54:21.143Z,3.67
2018-09-21T09:56:49.636Z,3.37
2018-09-21T09:59:18.843Z,3.37
2018-09-21T10:01:47.343Z,2.73
2018-09-21T10:04:16.100Z,3.77
2018-09-21T10:06:44.744Z,4.12
2018-09-21T10:09:13.290Z,3.40
2018-09-21T10:11:41.863Z,3.10
2018-09-21T10:14:10.314Z,3.00
2018-09-21T10:16:38.797Z,3.37
2018-09-21T10:19:07.276Z,3.10
2018-09-21T10:21:35.774Z,2.50
2018-09-21T10:24:04.322Z,2.73
2018-09-21T10:26:33.203Z,4.20
2018-09-21T10:29:01.723Z,3.27
2018-09-21T10:31:30.247Z,2.63
2018-09-21T10:33:59.209Z,3.20
2018-09-21T10:36:28.735Z,3.12
2018-09-21T10:38:57.260Z,3.07
2018-09-21T10:41:26.552Z,2.77
2018-09-21T10:43:55.796Z,4.40
2018-09-21T10:46:24.305Z,2.33
2018-09-21T10:48:53.260Z,3.35
2018-09-21T10:51:21.761Z,3.53
2018-09-21T10:53:50.545Z,3.57
2018-09-21T10:56:19.177Z,3.10
2018-09-21T10:58:47.716Z,2.93
2018-09-21T11:01:16.304Z,2.67
2018-09-21T11:03:44.909Z,5.50
2018-09-21T11:06:13.416Z,2.92
2018-09-21T11:08:41.957Z,3.13
2018-09-21T11:11:10.389Z,2.50
2018-09-21T11:13:38.941Z,3.17
2018-09-21T11:16:07.523Z,3.13
2018-09-21T11:18:36.011Z,4.10
2018-09-21T11:21:04.652Z,3.40
2018-09-21T11:23:33.309Z,3.90
2018-09-21T11:26:01.804Z,3.65
2018-09-21T11:28:30.344Z,2.90
2018-09-21T11:30:59.135Z,3.20
2018-09-21T11:33:27.694Z,4.20
2018-09-21T11:35:56.773Z,2.87
2018-09-21T11:38:25.240Z,2.52
2018-09-21T11:40:54.530Z,3.20
2018-09-21T11:43:23.649Z,2.40
2018-09-21T11:45:52.236Z,2.83
2018-09-21T11:48:20.686Z,3.90
2018-09-21T11:50:49.574Z,2.17
2018-09-21T11:53:18.537Z,2.83
2018-09-21T11:55:47.157Z,2.20
2018-09-21T11:58:15.605Z,2.90
2018-09-21T12:00:44.164Z,3.43
2018-09-21T12:03:12.818Z,2.73
2018-09-21T12:05:41.741Z,2.63
2018-09-21T12:08:10.421Z,2.30
2018-09-21T12:10:39.063Z,2.40
2018-09-21T12:13:07.508Z,2.17
2018-09-21T12:15:35.993Z,2.77
2018-09-21T12:18:04.581Z,2.03
2018-09-21T12:20:33.602Z,2.83
2018-09-21T12:23:02.264Z,2.70
2018-09-21T12:25:31.653Z,2.75
2018-09-21T12:28:00.483Z,2.70
2018-09-21T12:30:29.940Z,2.60
2018-09-21T12:32:58.756Z,3.10
2018-09-21T12:35:27.560Z,2.50
2018-09-21T12:37:56.203Z,2.50
2018-09-21T12:40:24.780Z,2.63
2018-09-21T12:42:53.237Z,2.33
2018-09-21T12:45:21.753Z,2.63
2018-09-21T12:47:50.381Z,3.13
2018-09-21T12:50:18.966Z,2.92
2018-09-21T12:52:47.612Z,2.97
2018-09-21T12:55:18.097Z,2.63
2018-09-21T12:57:47.015Z,2.70
2018-09-21T13:00:15.617Z,1.93
2018-09-21T13:02:44.430Z,3.43
2018-09-21T13:05:13.161Z,3.37
2018-09-21T13:07:41.684Z,3.10
2018-09-21T13:10:09.765Z,2.17
2018-09-21T13:12:38.302Z,2.57
2018-09-21T13:15:07.213Z,3.70
2018-09-21T13:17:35.696Z,2.60
2018-09-21T13:20:04.215Z,1.77
2018-09-21T13:22:33.460Z,2.67
2018-09-21T13:25:02.099Z,2.60
2018-09-21T13:27:31.602Z,2.20
2018-09-21T13:30:00.204Z,2.70
2018-09-21T13:32:28.693Z,2.33
2018-09-21T13:34:57.259Z,2.50
2018-09-21T13:37:25.733Z,2.57
2018-09-21T13:39:54.306Z,2.37
2018-09-21T13:42:22.840Z,1.80
2018-09-21T13:44:51.597Z,1.97
2018-09-21T13:47:20.272Z,3.03
2018-09-21T13:49:48.760Z,2.30
2018-09-21T13:52:17.488Z,1.83
2018-09-21T13:57:18.795Z,1.83
2018-09-21T13:59:47.262Z,2.62
2018-09-21T14:02:15.959Z,1.83
2018-09-21T14:04:46.016Z,1.70
2018-09-21T14:07:14.735Z,1.72
2018-09-21T14:09:43.237Z,1.60
2018-09-21T14:12:11.827Z,1.77
2018-09-21T14:14:40.537Z,1.50
2018-09-21T14:17:08.977Z,1.67
2018-09-21T14:19:44.145Z,1.67
2018-09-21T14:22:12.725Z,1.55
2018-09-21T14:24:41.182Z,1.87
2018-09-21T14:27:09.712Z,1.67
2018-09-21T14:29:38.236Z,1.70
2018-09-21T14:32:07.782Z,1.60
2018-09-21T14:34:36.317Z,1.50
2018-09-21T14:37:05.999Z,1.70
2018-09-21T14:39:34.596Z,1.47
2018-09-21T14:42:03.267Z,1.80
2018-09-21T14:44:32.047Z,1.43
2018-09-21T14:47:00.743Z,1.67
2018-09-21T14:49:29.344Z,1.40
2018-09-21T14:51:58.018Z,1.13
2018-09-21T14:54:26.617Z,1.47
2018-09-21T14:56:55.271Z,1.20
2018-09-21T14:59:23.783Z,1.60
2018-09-21T15:01:52.559Z,1.27
2018-09-21T15:04:22.273Z,1.63
2018-09-21T15:12:37.676Z,1.50
2018-09-21T21:36:39.368Z,0.80
2018-09-21T21:39:08.852Z,1.10
2018-09-21T21:41:37.483Z,1.07
2018-09-21T21:44:05.715Z,1.20
2018-09-21T21:46:34.079Z,1.03
2018-09-21T21:49:02.193Z,1.20
2018-09-21T21:51:30.404Z,0.90
2018-09-21T21:53:58.641Z,1.03
2018-09-21T21:56:26.826Z,1.20
2018-09-21T21:58:55.068Z,1.30
2018-09-21T22:02:39.331Z,0.90
2018-09-21T22:05:07.431Z,1.05
2018-09-21T22:07:36.880Z,0.80
2018-09-21T22:10:06.524Z,0.90
2018-09-21T22:12:40.122Z,1.20
2018-09-21T22:15:13.701Z,1.30
2018-09-21T22:17:41.831Z,1.10
2018-09-21T22:20:10.107Z,0.90
2018-09-21T22:22:38.453Z,1.15
2018-09-21T22:25:06.627Z,1.57
2018-09-21T22:27:34.784Z,1.05
2018-09-21T22:30:02.927Z,1.13
2018-09-21T22:32:31.143Z,1.20
2018-09-21T22:34:59.257Z,1.13
2018-09-21T22:37:27.941Z,0.90
2018-09-21T22:39:56.295Z,1.00
2018-09-21T22:42:24.595Z,1.27
2018-09-21T22:44:52.761Z,0.97
2018-09-21T22:47:20.953Z,1.10
2018-09-21T22:49:49.124Z,1.10
2018-09-21T22:52:17.281Z,1.30
2018-09-21T22:54:45.579Z,1.10
2018-09-21T22:57:13.938Z,1.23
2018-09-21T22:59:42.228Z,1.20
2018-09-21T23:02:10.869Z,1.33
2018-09-21T23:04:39.031Z,1.00
2018-09-21T23:07:10.216Z,2.23
2018-09-21T23:09:38.473Z,1.00
2018-09-21T23:12:06.995Z,1.50
2018-09-21T23:14:35.224Z,1.13
2018-09-21T23:17:03.338Z,1.40
2018-09-21T23:19:31.594Z,1.47
2018-09-21T23:21:59.809Z,1.00
2018-09-21T23:24:27.913Z,1.10
2018-09-21T23:26:56.204Z,1.10
2018-09-21T23:29:24.377Z,0.90
2018-09-21T23:31:52.613Z,1.30
2018-09-21T23:34:20.714Z,1.20
2018-09-21T23:36:48.925Z,1.10
2018-09-21T23:39:17.199Z,1.07
2018-09-21T23:41:45.366Z,1.00
2018-09-21T23:44:13.660Z,0.93
2018-09-21T23:46:42.821Z,1.10
2018-09-21T23:49:11.011Z,0.90
2018-09-21T23:51:39.202Z,1.17
2018-09-21T23:54:07.382Z,1.17
2018-09-21T23:56:35.546Z,1.00
2018-09-21T23:59:04.446Z,1.73
